Linlithgo, New York
Current Conditions -  °F | °C
As of 2:53 PM on Monday 24 Nov 2014 (Local Time) from KPOU Reporting Station
Clear Clear  
Wind Chill: 70°   Ceiling: Unl
Heat Index: 70°   Visibility: 10mi
Dew Point: 58°   Wind: 9mph
Humidity: 65%   Direction: 170°S
Pressure: 29.5"   Gusts: NA
Location:  42.118°N, 73.8553°W
Report Text: KPOU 241953Z 17008KT 130V200 10SM CLR 21/14 A2950 RMK AO2 SLP987 T02110144
Loading
Personal Weather Stations






























Interactive Weather Map New forecast layout! Learn more

10-Day Weather Forecast

Advertisements
Track Severe Weather on mobile